createdAt,value
2023-04-04T00:00:17.733Z,1.00
2023-04-04T00:02:20.829Z,3.10
2023-04-04T00:04:25.239Z,9.60
2023-04-04T00:06:28.043Z,12.80
2023-04-04T00:08:30.853Z,15.60
2023-04-04T00:10:33.653Z,18.90
2023-04-04T00:12:37.192Z,24.00
2023-04-04T00:14:39.963Z,24.00
2023-04-04T00:16:42.758Z,23.90
2023-04-04T00:18:45.544Z,23.90
2023-04-04T00:20:49.695Z,23.90
2023-04-04T00:22:52.453Z,23.80
2023-04-04T00:24:55.199Z,29.10
2023-04-04T00:26:57.964Z,31.60
2023-04-04T00:29:00.779Z,34.10
2023-04-04T00:31:03.520Z,40.80
2023-04-04T00:33:06.479Z,45.60
2023-04-04T00:35:09.884Z,51.20
2023-04-04T00:37:13.939Z,56.20
2023-04-04T00:39:17.297Z,58.50
2023-04-04T00:41:20.084Z,61.20
2023-04-04T00:43:22.996Z,62.40
2023-04-04T00:45:25.909Z,68.90
2023-04-04T00:47:31.126Z,70.70
2023-04-04T00:49:34.498Z,72.90
2023-04-04T00:51:37.249Z,78.70
2023-04-04T00:53:41.884Z,79.10
2023-04-04T00:55:44.667Z,87.70
2023-04-04T00:57:47.379Z,87.70
2023-04-04T00:59:50.087Z,87.80
2023-04-04T01:01:52.852Z,87.70
2023-04-04T01:03:55.590Z,87.60
2023-04-04T01:05:58.344Z,87.60
2023-04-04T01:08:01.821Z,87.60
2023-04-04T01:10:06.703Z,90.60
2023-04-04T01:12:09.427Z,92.20
2023-04-04T01:14:12.129Z,93.30
2023-04-04T01:16:14.903Z,95.50
2023-04-04T01:18:20.046Z,95.10
2023-04-04T01:20:24.205Z,95.30
2023-04-04T01:22:27.017Z,96.40
2023-04-04T01:24:32.079Z,97.10
2023-04-04T01:26:36.173Z,97.50
2023-04-04T01:28:38.880Z,99.00
2023-04-04T01:30:42.186Z,99.70
2023-04-04T01:32:46.106Z,99.50
2023-04-04T01:34:52.883Z,99.90
2023-04-04T01:36:58.764Z,99.90
2023-04-04T01:39:06.049Z,99.90
2023-04-04T01:41:09.898Z,99.90
2023-04-04T01:43:13.952Z,99.90
2023-04-04T01:45:16.681Z,99.90
2023-04-04T01:47:19.429Z,99.90
2023-04-04T01:49:22.368Z,99.90
2023-04-04T01:51:25.114Z,99.90
2023-04-04T01:53:27.857Z,99.90
2023-04-04T01:55:30.760Z,99.90
2023-04-04T01:57:33.517Z,99.90
2023-04-04T01:59:37.620Z,99.90
2023-04-04T02:01:40.373Z,99.90
2023-04-04T02:03:43.177Z,99.90
2023-04-04T02:05:46.384Z,99.90
2023-04-04T02:07:50.575Z,99.90
2023-04-04T02:09:53.326Z,99.90
2023-04-04T02:11:56.070Z,99.90
2023-04-04T02:13:58.768Z,99.90
2023-04-04T02:16:02.866Z,99.90
2023-04-04T02:18:05.755Z,99.90
2023-04-04T02:20:10.642Z,99.90
2023-04-04T02:22:13.411Z,99.90
2023-04-04T02:24:16.126Z,99.90
2023-04-04T02:26:18.865Z,99.90
2023-04-04T02:28:22.595Z,99.90
2023-04-04T02:30:25.584Z,99.90
2023-04-04T02:32:29.673Z,99.90
2023-04-04T02:34:32.806Z,99.90
2023-04-04T02:36:35.676Z,99.90
2023-04-04T02:38:38.437Z,99.90
2023-04-04T02:40:42.810Z,99.90
2023-04-04T02:42:45.861Z,99.90
2023-04-04T02:44:48.634Z,99.90
2023-04-04T02:46:51.426Z,99.90
2023-04-04T02:48:55.574Z,99.90
2023-04-04T02:50:58.559Z,99.90
2023-04-04T02:53:02.250Z,99.90
2023-04-04T02:55:06.382Z,99.90
2023-04-04T02:57:09.170Z,99.90
2023-04-04T02:59:12.320Z,99.90
2023-04-04T03:01:15.442Z,99.90
2023-04-04T03:03:18.338Z,99.90
2023-04-04T03:05:22.589Z,99.90
2023-04-04T03:07:26.027Z,99.90
2023-04-04T03:09:28.791Z,99.90
2023-04-04T03:11:31.693Z,99.90
2023-04-04T03:13:34.477Z,99.90
2023-04-04T03:15:37.271Z,99.90
2023-04-04T03:17:41.287Z,99.90
2023-04-04T03:19:44.192Z,99.90
2023-04-04T03:21:48.342Z,99.90
2023-04-04T03:23:51.220Z,99.90
2023-04-04T03:25:55.025Z,99.90
2023-04-04T03:27:58.138Z,99.90
2023-04-04T03:30:00.895Z,99.90
2023-04-04T03:32:03.840Z,99.90
2023-04-04T03:34:06.656Z,99.90
2023-04-04T03:36:12.018Z,99.90
2023-04-04T03:38:16.217Z,99.90
2023-04-04T03:40:18.998Z,99.90
2023-04-04T03:42:21.860Z,99.90
2023-04-04T03:44:24.729Z,99.90
2023-04-04T03:46:27.615Z,99.90
2023-04-04T03:48:30.569Z,99.90
2023-04-04T03:50:33.352Z,99.90
2023-04-04T03:52:38.878Z,99.90
2023-04-04T03:54:43.010Z,99.90
2023-04-04T03:56:45.801Z,99.90
2023-04-04T03:58:49.144Z,99.90
2023-04-04T04:00:51.999Z,99.90
2023-04-04T04:02:54.910Z,99.90
2023-04-04T04:04:57.795Z,99.90
2023-04-04T04:07:02.292Z,99.90
2023-04-04T04:09:05.206Z,99.90
2023-04-04T04:11:10.039Z,99.90
2023-04-04T04:13:12.817Z,99.90
2023-04-04T04:15:15.679Z,99.90
2023-04-04T04:17:18.442Z,99.90
2023-04-04T04:19:21.600Z,99.90
2023-04-04T04:21:25.809Z,99.90
2023-04-04T04:23:28.574Z,99.90
2023-04-04T04:25:31.453Z,99.90
2023-04-04T04:27:35.879Z,99.90
2023-04-04T04:29:38.668Z,99.90
2023-04-04T04:31:41.754Z,99.90
2023-04-04T04:33:44.805Z,99.90
2023-04-04T04:35:47.738Z,99.90
2023-04-04T04:37:50.574Z,99.90
2023-04-04T04:39:53.366Z,99.90
2023-04-04T04:41:56.198Z,99.90
2023-04-04T04:44:00.323Z,99.90
2023-04-04T04:46:03.102Z,99.90
2023-04-04T04:48:07.475Z,99.90
2023-04-04T04:50:11.435Z,99.90
2023-04-04T04:52:14.465Z,99.90
2023-04-04T04:54:17.248Z,99.90
2023-04-04T04:56:20.041Z,99.90
2023-04-04T04:58:24.710Z,99.90
2023-04-04T05:00:29.614Z,99.90
2023-04-04T05:02:32.502Z,99.90
2023-04-04T05:04:35.532Z,99.90
2023-04-04T05:06:39.074Z,99.90
2023-04-04T05:08:42.074Z,99.90
2023-04-04T05:10:45.056Z,99.90
2023-04-04T05:12:48.150Z,99.90
2023-04-04T05:14:50.906Z,99.90
2023-04-04T05:16:55.008Z,99.90
2023-04-04T05:18:58.040Z,99.90
2023-04-04T05:21:00.798Z,99.90
2023-04-04T05:23:03.589Z,99.90
2023-04-04T05:25:06.702Z,99.90
2023-04-04T05:27:09.482Z,99.90
2023-04-04T05:29:12.307Z,99.90
2023-04-04T05:31:15.069Z,99.90
2023-04-04T05:33:19.199Z,99.90
2023-04-04T05:35:22.031Z,99.90
2023-04-04T05:37:24.873Z,99.90
2023-04-04T05:39:27.636Z,99.90
2023-04-04T05:41:30.428Z,99.90
2023-04-04T05:43:33.192Z,99.90
2023-04-04T05:45:36.832Z,99.90
2023-04-04T05:47:39.651Z,99.90
2023-04-04T05:49:43.786Z,99.90
2023-04-04T05:51:47.211Z,99.90
2023-04-04T05:53:50.148Z,99.90
2023-04-04T05:55:53.601Z,99.90
2023-04-04T05:57:56.802Z,99.90
2023-04-04T05:59:59.636Z,99.90
2023-04-04T06:02:02.620Z,99.90
2023-04-04T06:04:05.442Z,99.90
2023-04-04T06:06:10.235Z,99.90
2023-04-04T06:08:13.046Z,99.90
2023-04-04T06:10:16.013Z,99.90
2023-04-04T06:12:18.799Z,99.90
2023-04-04T06:14:21.546Z,99.90
2023-04-04T06:16:24.454Z,99.90
2023-04-04T06:18:27.334Z,99.90
2023-04-04T06:20:30.309Z,99.90
2023-04-04T06:22:34.952Z,99.90
2023-04-04T06:24:37.874Z,99.90
2023-04-04T06:26:40.662Z,99.90
2023-04-04T06:28:49.210Z,99.90
2023-04-04T06:30:52.012Z,99.90
2023-04-04T06:32:54.852Z,99.90
2023-04-04T06:34:57.675Z,99.90
2023-04-04T06:37:00.461Z,99.90
2023-04-04T06:39:04.650Z,99.90
2023-04-04T06:41:07.692Z,99.90
2023-04-04T06:43:10.671Z,99.90
2023-04-04T06:45:13.519Z,99.90
2023-04-04T06:47:16.328Z,99.90
2023-04-04T06:49:19.100Z,99.90
2023-04-04T06:51:21.916Z,99.90
2023-04-04T06:53:24.778Z,99.90
2023-04-04T06:55:29.224Z,99.90
2023-04-04T06:57:32.032Z,99.90
2023-04-04T06:59:34.790Z,99.90
2023-04-04T07:01:37.562Z,99.90
2023-04-04T07:03:40.385Z,99.90
2023-04-04T07:05:43.433Z,99.90
2023-04-04T07:07:46.981Z,99.90
2023-04-04T07:09:49.762Z,99.90
2023-04-04T07:11:53.852Z,99.90
2023-04-04T07:13:56.625Z,99.90
2023-04-04T07:15:59.425Z,99.90
2023-04-04T07:18:02.353Z,99.90
2023-04-04T07:20:05.774Z,99.90
2023-04-04T07:22:08.541Z,99.90
2023-04-04T07:24:11.298Z,99.90
2023-04-04T07:26:14.071Z,99.90
2023-04-04T07:28:18.222Z,98.70
2023-04-04T07:30:22.637Z,99.30
2023-04-04T07:32:25.711Z,96.00
2023-04-04T07:34:29.506Z,91.10
2023-04-04T07:36:32.534Z,91.20
2023-04-04T07:38:35.334Z,91.20
2023-04-04T07:40:38.507Z,91.20
2023-04-04T07:42:44.867Z,91.30
2023-04-04T07:44:49.037Z,86.40
2023-04-04T07:47:02.388Z,76.80
2023-04-04T07:49:12.659Z,74.40
2023-04-04T07:51:16.420Z,72.30
2023-04-04T07:53:19.198Z,73.70
2023-04-04T07:55:25.001Z,59.90
2023-04-04T07:57:27.795Z,56.60
2023-04-04T07:59:30.672Z,56.40
2023-04-04T08:01:34.826Z,60.20
2023-04-04T08:03:37.759Z,50.90
2023-04-04T08:05:41.159Z,51.80
2023-04-04T08:07:43.958Z,43.20
2023-04-04T08:09:46.723Z,41.60
2023-04-04T08:11:49.476Z,48.60
2023-04-04T08:13:52.703Z,46.20
2023-04-04T08:15:55.538Z,36.40
2023-04-04T08:18:00.631Z,37.00
2023-04-04T08:20:04.020Z,37.10
2023-04-04T08:22:06.785Z,28.30
2023-04-04T08:24:09.817Z,29.70
2023-04-04T08:26:12.711Z,30.60
2023-04-04T08:28:15.636Z,34.80
2023-04-04T08:30:18.765Z,29.10
2023-04-04T08:32:22.241Z,29.00
2023-04-04T08:34:26.398Z,24.30
2023-04-04T08:36:29.257Z,29.50
2023-04-04T08:38:32.084Z,22.00
2023-04-04T08:40:34.985Z,15.20
2023-04-04T08:42:39.667Z,15.80
2023-04-04T08:44:42.819Z,10.30
2023-04-04T08:46:45.952Z,6.80
2023-04-04T08:48:48.775Z,6.20
2023-04-04T08:50:57.153Z,8.10
2023-04-04T08:53:03.032Z,5.70
2023-04-04T08:55:06.595Z,3.80
2023-04-04T08:57:09.508Z,1.30
2023-04-04T08:59:15.541Z,1.00
2023-04-04T09:01:18.484Z,1.70
2023-04-04T09:03:22.959Z,1.00
2023-04-04T09:05:27.376Z,1.00
2023-04-04T09:07:32.006Z,1.00
2023-04-04T09:09:35.298Z,1.60
2023-04-04T09:11:38.057Z,1.20
2023-04-04T09:13:41.536Z,1.00
2023-04-04T09:15:47.044Z,1.00
2023-04-04T09:17:50.296Z,1.00
2023-04-04T09:19:54.264Z,1.00
2023-04-04T09:21:57.104Z,1.00
2023-04-04T09:24:01.951Z,1.00
2023-04-04T09:26:04.975Z,1.00
2023-04-04T09:28:07.790Z,1.00
2023-04-04T09:30:11.178Z,1.00
2023-04-04T09:32:15.992Z,1.00
2023-04-04T09:34:19.651Z,1.00
2023-04-04T09:36:22.548Z,1.00
2023-04-04T09:38:26.410Z,1.00
2023-04-04T09:40:31.295Z,1.00
2023-04-04T09:42:34.109Z,1.00
2023-04-04T09:44:37.247Z,1.00
2023-04-04T09:46:40.795Z,1.00
2023-04-04T09:48:44.767Z,1.00
2023-04-04T09:50:47.842Z,1.00
2023-04-04T09:52:50.693Z,1.00
2023-04-04T09:54:58.091Z,1.00
2023-04-04T09:57:02.193Z,1.00
2023-04-04T09:59:05.553Z,1.00
2023-04-04T10:01:10.399Z,1.00
2023-04-04T10:03:15.086Z,1.00
2023-04-04T10:05:18.200Z,1.00
2023-04-04T10:07:21.605Z,1.00
2023-04-04T10:09:24.470Z,1.00
2023-04-04T10:11:31.100Z,1.00
2023-04-04T10:13:36.656Z,1.00
2023-04-04T10:15:39.592Z,1.00
2023-04-04T10:17:42.718Z,1.00
2023-04-04T10:19:45.569Z,1.00
2023-04-04T10:21:48.367Z,1.00
2023-04-04T10:23:51.440Z,1.00
2023-04-04T10:25:54.315Z,1.00
2023-04-04T10:27:57.174Z,1.00
2023-04-04T10:30:01.504Z,1.00
2023-04-04T10:32:07.005Z,1.00
2023-04-04T10:34:12.934Z,1.00
2023-04-04T10:36:15.976Z,1.00
2023-04-04T10:38:18.795Z,1.00
2023-04-04T10:40:23.032Z,1.00
2023-04-04T10:42:25.898Z,1.00
2023-04-04T10:44:32.504Z,1.00
2023-04-04T10:46:36.717Z,1.00
2023-04-04T10:48:39.563Z,1.00
2023-04-04T10:50:42.336Z,1.00
2023-04-04T10:52:45.477Z,1.00
2023-04-04T10:54:48.403Z,1.00
2023-04-04T10:56:51.176Z,1.00
2023-04-04T10:59:15.819Z,1.00
2023-04-04T11:01:21.016Z,1.00
2023-04-04T11:03:26.442Z,1.00
2023-04-04T11:05:32.974Z,1.00
2023-04-04T11:07:36.522Z,1.00
2023-04-04T11:09:52.734Z,1.00
2023-04-04T11:12:10.722Z,1.00
2023-04-04T11:14:13.511Z,1.00
2023-04-04T11:16:16.406Z,1.00
2023-04-04T11:18:31.976Z,1.00
2023-04-04T11:20:39.693Z,1.00
2023-04-04T11:22:43.828Z,1.00
2023-04-04T11:24:46.644Z,1.00
2023-04-04T11:26:49.794Z,1.00
2023-04-04T11:28:52.639Z,1.00
2023-04-04T11:31:23.559Z,1.00
2023-04-04T11:33:28.470Z,1.00
2023-04-04T11:35:31.310Z,1.00
2023-04-04T11:37:35.495Z,1.00
2023-04-04T11:39:50.529Z,1.00
2023-04-04T11:41:54.536Z,1.00
2023-04-04T11:43:57.349Z,1.00
2023-04-04T11:46:08.788Z,1.00
2023-04-04T11:48:12.742Z,1.00
2023-04-04T11:50:16.130Z,1.00
2023-04-04T11:52:19.195Z,1.00
2023-04-04T11:54:23.322Z,1.00
2023-04-04T11:56:26.118Z,1.00
2023-04-04T11:58:29.472Z,1.00
2023-04-04T12:00:32.540Z,1.00
2023-04-04T12:02:35.805Z,1.00
2023-04-04T12:04:40.451Z,1.00
2023-04-04T12:06:44.607Z,1.00
2023-04-04T12:08:48.172Z,1.00
2023-04-04T12:10:52.988Z,1.00
2023-04-04T12:12:56.973Z,1.00
2023-04-04T12:15:06.605Z,1.00
2023-04-04T12:17:14.389Z,1.00
2023-04-04T12:19:18.251Z,1.00
2023-04-04T12:21:21.031Z,1.00
2023-04-04T12:23:23.836Z,1.00
2023-04-04T12:25:28.422Z,1.00
2023-04-04T12:27:32.559Z,1.00
2023-04-04T12:29:36.378Z,1.00
2023-04-04T12:31:39.582Z,1.00
2023-04-04T12:33:42.455Z,1.00
2023-04-04T12:35:52.780Z,1.00
2023-04-04T12:37:59.913Z,1.00
2023-04-04T12:40:03.174Z,1.00
2023-04-04T12:42:07.090Z,1.00
2023-04-04T12:44:11.595Z,1.00
2023-04-04T12:46:14.393Z,1.00
2023-04-04T12:48:18.074Z,1.00
2023-04-04T12:50:23.174Z,1.00
2023-04-04T12:52:29.617Z,1.00
2023-04-04T12:54:33.256Z,1.00
2023-04-04T12:56:36.170Z,1.00
2023-04-04T12:58:38.948Z,1.00
2023-04-04T13:00:43.090Z,1.00
2023-04-04T13:02:46.983Z,1.00
2023-04-04T13:04:52.974Z,1.00
2023-04-04T13:06:55.775Z,1.00
2023-04-04T13:08:58.600Z,1.00
2023-04-04T13:11:04.183Z,1.00
2023-04-04T13:13:07.256Z,1.00
2023-04-04T13:15:11.795Z,1.00
2023-04-04T13:17:15.954Z,1.00
2023-04-04T13:19:18.739Z,1.00
2023-04-04T13:21:21.502Z,1.00
2023-04-04T13:23:24.429Z,1.00
2023-04-04T13:25:27.242Z,1.00
2023-04-04T13:27:30.209Z,1.00
2023-04-04T13:29:33.325Z,1.00
2023-04-04T13:31:36.111Z,1.00
2023-04-04T13:33:40.426Z,1.00
2023-04-04T13:35:43.813Z,1.00
2023-04-04T13:37:46.592Z,1.00
2023-04-04T13:39:49.374Z,1.00
2023-04-04T13:41:52.469Z,1.00
2023-04-04T13:43:56.550Z,1.00
2023-04-04T13:45:59.381Z,1.00
2023-04-04T13:48:02.302Z,1.00
2023-04-04T13:50:07.732Z,1.00
2023-04-04T13:52:10.693Z,1.00
2023-04-04T13:54:13.681Z,1.00
2023-04-04T13:56:18.836Z,1.00
2023-04-04T13:58:22.363Z,1.00
2023-04-04T14:00:25.853Z,1.00
2023-04-04T14:02:28.750Z,1.00
2023-04-04T14:04:31.635Z,1.00
2023-04-04T14:06:35.866Z,1.00
2023-04-04T14:08:38.755Z,1.00
2023-04-04T14:10:41.598Z,1.00
2023-04-04T14:12:44.381Z,1.00
2023-04-04T14:14:47.175Z,1.00
2023-04-04T14:16:49.931Z,1.00
2023-04-04T14:18:52.771Z,1.00
2023-04-04T14:20:55.683Z,1.00
2023-04-04T14:22:59.796Z,1.00
2023-04-04T14:25:02.617Z,1.00
2023-04-04T14:27:05.517Z,1.00
2023-04-04T14:29:08.290Z,1.00
2023-04-04T14:31:11.286Z,1.00
2023-04-04T14:33:14.335Z,1.00
2023-04-04T14:35:17.204Z,1.00
2023-04-04T14:37:20.270Z,1.00
2023-04-04T14:39:24.392Z,1.00
2023-04-04T14:41:27.363Z,1.00
2023-04-04T14:43:30.113Z,1.00
2023-04-04T14:45:33.356Z,1.00
2023-04-04T14:47:36.448Z,1.00
2023-04-04T14:49:39.246Z,1.00
2023-04-04T14:51:41.993Z,1.00
2023-04-04T14:53:44.762Z,1.00
2023-04-04T14:55:48.934Z,1.00
2023-04-04T14:58:02.139Z,1.00
2023-04-04T15:00:06.564Z,1.00
2023-04-04T15:02:09.329Z,1.00
2023-04-04T15:04:12.478Z,1.00
2023-04-04T15:06:15.320Z,1.00
2023-04-04T15:08:18.093Z,1.00
2023-04-04T15:10:21.106Z,1.00
2023-04-04T15:12:25.383Z,1.00
2023-04-04T15:14:28.171Z,1.00
2023-04-04T15:16:33.191Z,1.00
2023-04-04T15:18:37.957Z,1.00
2023-04-04T15:20:40.903Z,1.00
2023-04-04T15:22:43.739Z,1.00
2023-04-04T15:24:46.507Z,1.00
2023-04-04T15:26:49.288Z,1.00
2023-04-04T15:28:53.387Z,1.00
2023-04-04T15:30:56.502Z,1.00
2023-04-04T15:32:59.287Z,1.00
2023-04-04T15:35:04.295Z,1.00
2023-04-04T15:37:09.551Z,1.00
2023-04-04T15:39:12.510Z,1.00
2023-04-04T15:41:15.323Z,1.00
2023-04-04T15:43:18.122Z,1.00
2023-04-04T15:45:22.262Z,1.00
2023-04-04T15:47:25.050Z,1.00
2023-04-04T15:49:28.344Z,1.00
2023-04-04T15:51:31.703Z,1.00
2023-04-04T15:53:34.548Z,1.00
2023-04-04T15:55:37.369Z,1.00
2023-04-04T15:57:40.452Z,1.00
2023-04-04T15:59:43.229Z,1.00
2023-04-04T16:01:47.713Z,1.00
2023-04-04T16:03:50.593Z,1.00
2023-04-04T16:05:53.663Z,1.00
2023-04-04T16:07:56.442Z,1.00
2023-04-04T16:09:59.209Z,1.00
2023-04-04T16:12:03.053Z,1.00
2023-04-04T16:14:09.199Z,1.00
2023-04-04T16:16:12.118Z,1.00
2023-04-04T16:18:16.295Z,1.00
2023-04-04T16:20:19.314Z,1.00
2023-04-04T16:22:22.080Z,1.00
2023-04-04T16:24:24.868Z,1.00
2023-04-04T16:26:27.760Z,1.00
2023-04-04T16:28:30.774Z,1.00
2023-04-04T16:30:33.585Z,1.00
2023-04-04T16:32:37.325Z,1.00
2023-04-04T16:34:41.516Z,1.00
2023-04-04T16:36:44.351Z,1.00
2023-04-04T16:38:47.137Z,1.00
2023-04-04T16:40:49.930Z,1.00
2023-04-04T16:42:52.720Z,1.00
2023-04-04T16:44:55.521Z,1.00
2023-04-04T16:46:58.410Z,1.00
2023-04-04T16:49:01.257Z,1.00
2023-04-04T16:51:06.408Z,1.00
2023-04-04T16:53:09.941Z,1.00
2023-04-04T16:55:12.865Z,1.00
2023-04-04T16:57:15.634Z,1.00
2023-04-04T16:59:18.496Z,1.00
2023-04-04T17:01:22.658Z,1.00
2023-04-04T17:03:25.829Z,1.00
2023-04-04T17:05:28.654Z,1.00
2023-04-04T17:07:32.788Z,1.00
2023-04-04T17:09:36.875Z,1.00
2023-04-04T17:11:44.565Z,1.00
2023-04-04T17:13:47.540Z,1.00
2023-04-04T17:15:50.826Z,1.00
2023-04-04T17:17:53.636Z,1.00
2023-04-04T17:19:56.426Z,1.00
2023-04-04T17:21:59.447Z,1.00
2023-04-04T17:24:03.591Z,1.00
2023-04-04T17:26:06.388Z,1.00
2023-04-04T17:28:09.159Z,1.00
2023-04-04T17:30:13.222Z,1.00
2023-04-04T17:32:16.041Z,1.00
2023-04-04T17:34:18.982Z,1.00
2023-04-04T17:36:21.856Z,1.00
2023-04-04T17:38:24.700Z,1.00
2023-04-04T17:40:28.906Z,1.00
2023-04-04T17:42:31.876Z,1.00
2023-04-04T17:44:34.810Z,1.00
2023-04-04T17:46:37.901Z,1.00
2023-04-04T17:48:40.724Z,1.00
2023-04-04T17:50:43.770Z,1.00
2023-04-04T17:52:46.631Z,1.00
2023-04-04T17:54:49.680Z,1.00
2023-04-04T17:56:53.795Z,1.00
2023-04-04T17:58:56.959Z,1.00
2023-04-04T18:01:00.555Z,1.00
2023-04-04T18:03:03.513Z,1.00
2023-04-04T18:05:06.903Z,1.00
2023-04-04T18:07:09.765Z,1.00
2023-04-04T18:09:13.155Z,1.00
2023-04-04T18:11:16.360Z,1.00
2023-04-04T18:13:20.550Z,1.00
2023-04-04T18:15:23.310Z,1.00
2023-04-04T18:17:26.253Z,1.00
2023-04-04T18:19:29.191Z,1.00
2023-04-04T18:21:32.194Z,1.00
2023-04-04T18:23:34.960Z,1.00
2023-04-04T18:25:37.722Z,1.00
2023-04-04T18:27:41.199Z,1.00
2023-04-04T18:29:45.385Z,1.00
2023-04-04T18:31:48.228Z,1.00
2023-04-04T18:33:52.170Z,1.00
2023-04-04T18:35:55.056Z,1.00
2023-04-04T18:37:57.925Z,1.00
2023-04-04T18:40:03.031Z,1.00
2023-04-04T18:42:05.875Z,1.00
2023-04-04T18:44:08.860Z,1.00
2023-04-04T18:46:13.083Z,1.00
2023-04-04T18:48:15.943Z,1.00
2023-04-04T18:50:18.827Z,1.00
2023-04-04T18:52:21.639Z,1.00
2023-04-04T18:54:26.060Z,1.00
2023-04-04T18:56:28.859Z,1.00
2023-04-04T18:58:32.869Z,1.00
2023-04-04T19:00:36.016Z,1.00
2023-04-04T19:02:40.672Z,1.00
2023-04-04T19:04:43.654Z,1.00
2023-04-04T19:06:46.580Z,1.00
2023-04-04T19:08:49.425Z,1.00
2023-04-04T19:10:52.196Z,1.00
2023-04-04T19:12:57.529Z,1.00
2023-04-04T19:15:01.335Z,1.00
2023-04-04T19:17:04.156Z,1.00
2023-04-04T19:19:08.608Z,1.00
2023-04-04T19:21:11.580Z,1.00
2023-04-04T19:23:14.383Z,1.00
2023-04-04T19:25:17.880Z,1.00
2023-04-04T19:27:20.686Z,1.00
2023-04-04T19:29:23.450Z,1.00
2023-04-04T19:31:29.929Z,1.00
2023-04-04T19:33:33.672Z,1.00
2023-04-04T19:35:53.506Z,1.00
2023-04-04T19:37:56.501Z,1.00
2023-04-04T19:39:59.262Z,1.00
2023-04-04T19:42:02.661Z,1.00
2023-04-04T19:44:06.478Z,1.00
2023-04-04T19:46:10.330Z,1.00
2023-04-04T19:48:33.074Z,1.00
2023-04-04T19:50:37.969Z,1.00
2023-04-04T19:52:42.086Z,1.00
2023-04-04T19:54:45.531Z,1.00
2023-04-04T19:56:48.373Z,1.00
2023-04-04T19:58:53.112Z,1.00
2023-04-04T20:00:55.907Z,1.00
2023-04-04T20:03:00.497Z,1.00
2023-04-04T20:05:03.394Z,1.00
2023-04-04T20:07:06.727Z,1.00
2023-04-04T20:09:13.447Z,1.00
2023-04-04T20:11:17.466Z,1.00
2023-04-04T20:13:20.280Z,1.00
2023-04-04T20:15:55.751Z,1.00
2023-04-04T20:17:58.559Z,1.00
2023-04-04T20:20:01.850Z,1.00
2023-04-04T20:22:05.016Z,1.00
2023-04-04T20:24:10.061Z,1.00
2023-04-04T20:26:14.482Z,1.00
2023-04-04T20:28:25.366Z,1.00
2023-04-04T20:30:28.172Z,1.00
2023-04-04T20:32:31.036Z,1.00
2023-04-04T20:34:41.419Z,1.00
2023-04-04T20:36:44.763Z,1.00
2023-04-04T20:38:47.868Z,1.00
2023-04-04T20:40:52.057Z,1.00
2023-04-04T20:42:54.847Z,1.00
2023-04-04T20:45:00.577Z,1.00
2023-04-04T20:47:03.402Z,1.00
2023-04-04T20:49:06.184Z,1.00
2023-04-04T20:51:18.942Z,1.00
2023-04-04T20:53:27.556Z,1.00
2023-04-04T20:55:31.090Z,1.00
2023-04-04T20:57:35.295Z,1.00
2023-04-04T20:59:38.361Z,1.00
2023-04-04T21:01:41.308Z,1.00
2023-04-04T21:03:45.159Z,1.00
2023-04-04T21:05:47.925Z,1.00
2023-04-04T21:07:50.935Z,1.00
2023-04-04T21:09:53.708Z,1.00
2023-04-04T21:11:56.516Z,1.00
2023-04-04T21:14:00.566Z,1.00
2023-04-04T21:16:04.323Z,1.00
2023-04-04T21:18:08.482Z,1.00
2023-04-04T21:20:14.012Z,1.00
2023-04-04T21:22:16.901Z,4.80
2023-04-04T21:24:19.776Z,6.30
2023-04-04T21:26:33.768Z,9.10
2023-04-04T21:28:38.026Z,12.00
2023-04-04T21:30:43.863Z,12.20
2023-04-04T21:32:46.790Z,10.20
2023-04-04T21:34:49.575Z,11.10
2023-04-04T21:36:55.249Z,10.10
2023-04-04T21:38:57.930Z,10.70
2023-04-04T21:41:00.746Z,10.10
2023-04-04T21:43:03.562Z,11.40
2023-04-04T21:45:07.532Z,8.70
2023-04-04T21:47:12.620Z,7.80
2023-04-04T21:49:16.180Z,8.40
2023-04-04T21:51:18.937Z,8.90
2023-04-04T21:53:23.394Z,7.70
2023-04-04T21:55:26.143Z,9.60
2023-04-04T21:57:28.939Z,10.10
2023-04-04T21:59:31.775Z,12.00
2023-04-04T22:01:34.636Z,12.50
2023-04-04T22:03:40.642Z,13.70
2023-04-04T22:05:44.217Z,13.50
2023-04-04T22:07:47.013Z,14.60
2023-04-04T22:09:52.887Z,15.80
2023-04-04T22:11:58.955Z,17.80
2023-04-04T22:14:06.733Z,17.70
2023-04-04T22:16:10.662Z,18.40
2023-04-04T22:18:14.935Z,25.60
2023-04-04T22:20:19.694Z,25.60
2023-04-04T22:22:22.480Z,25.50
2023-04-04T22:24:25.791Z,25.50
2023-04-04T22:26:33.205Z,25.40
2023-04-04T22:28:37.474Z,25.40
2023-04-04T22:30:42.143Z,30.10
2023-04-04T22:32:45.642Z,32.70
2023-04-04T22:34:48.861Z,34.30
2023-04-04T22:36:54.769Z,29.60
2023-04-04T22:38:58.092Z,37.10
2023-04-04T22:41:01.233Z,43.00
2023-04-04T22:43:04.348Z,47.70
2023-04-04T22:45:08.324Z,52.30
2023-04-04T22:47:11.954Z,56.70
2023-04-04T22:49:16.210Z,61.50
2023-04-04T22:51:19.000Z,66.80
2023-04-04T22:53:25.002Z,72.30
2023-04-04T22:55:27.918Z,77.00
2023-04-04T22:57:30.695Z,77.10
2023-04-04T22:59:33.493Z,72.20
2023-04-04T23:01:36.331Z,77.20
2023-04-04T23:03:39.165Z,70.60
2023-04-04T23:05:42.156Z,74.80
2023-04-04T23:07:45.602Z,78.30
2023-04-04T23:09:49.708Z,77.10
2023-04-04T23:11:52.456Z,74.20
2023-04-04T23:13:57.022Z,75.50
2023-04-04T23:16:00.039Z,78.50
2023-04-04T23:18:03.164Z,81.20
2023-04-04T23:20:09.439Z,80.50
2023-04-04T23:22:12.467Z,89.20
2023-04-04T23:24:15.403Z,89.20
2023-04-04T23:26:19.515Z,90.00
2023-04-04T23:28:22.331Z,94.60
2023-04-04T23:30:25.521Z,97.30
2023-04-04T23:32:28.416Z,98.70
2023-04-04T23:34:31.253Z,98.70
2023-04-04T23:36:34.071Z,98.70
2023-04-04T23:38:36.889Z,98.10
2023-04-04T23:40:39.847Z,99.90
2023-04-04T23:42:44.197Z,96.90
2023-04-04T23:44:47.032Z,99.90
2023-04-04T23:46:49.897Z,99.90
2023-04-04T23:48:52.762Z,99.90
2023-04-04T23:50:56.644Z,99.90
2023-04-04T23:52:59.434Z,99.90
2023-04-04T23:55:02.227Z,99.90
2023-04-04T23:57:05.706Z,99.90
2023-04-04T23:59:10.430Z,99.90
